sensor_id;sensor_type;location;lat;lon;timestamp;temperature;humidity
36990;DHT22;22898;52.102;5.776;2023-02-01T00:01:44;7.90;99.90
36990;DHT22;22898;52.102;5.776;2023-02-01T00:04:10;8.30;99.90
36990;DHT22;22898;52.102;5.776;2023-02-01T00:06:36;8.20;99.90
36990;DHT22;22898;52.102;5.776;2023-02-01T00:09:02;8.10;99.90
36990;DHT22;22898;52.102;5.776;2023-02-01T00:11:27;8.30;99.90
36990;DHT22;22898;52.102;5.776;2023-02-01T00:13:53;8.00;99.90
36990;DHT22;22898;52.102;5.776;2023-02-01T00:16:21;7.90;99.90
36990;DHT22;22898;52.102;5.776;2023-02-01T00:18:48;7.90;99.90
36990;DHT22;22898;52.102;5.776;2023-02-01T00:21:17;8.20;99.90
36990;DHT22;22898;52.102;5.776;2023-02-01T00:23:43;8.30;99.90
36990;DHT22;22898;52.102;5.776;2023-02-01T00:26:14;8.50;99.90
36990;DHT22;22898;52.102;5.776;2023-02-01T00:28:41;8.20;99.90
36990;DHT22;22898;52.102;5.776;2023-02-01T00:31:06;8.00;99.90
36990;DHT22;22898;52.102;5.776;2023-02-01T00:33:33;8.10;99.90
36990;DHT22;22898;52.102;5.776;2023-02-01T00:36:03;8.20;99.90
36990;DHT22;22898;52.102;5.776;2023-02-01T00:38:30;8.30;99.90
36990;DHT22;22898;52.102;5.776;2023-02-01T00:41:12;8.00;99.90
36990;DHT22;22898;52.102;5.776;2023-02-01T00:43:39;8.50;99.90
36990;DHT22;22898;52.102;5.776;2023-02-01T00:46:04;8.50;99.90
36990;DHT22;22898;52.102;5.776;2023-02-01T00:48:30;8.70;99.90
36990;DHT22;22898;52.102;5.776;2023-02-01T00:51:03;8.60;99.90
36990;DHT22;22898;52.102;5.776;2023-02-01T00:53:30;8.40;99.90
36990;DHT22;22898;52.102;5.776;2023-02-01T00:55:56;8.40;99.90
36990;DHT22;22898;52.102;5.776;2023-02-01T00:58:22;8.60;99.90
36990;DHT22;22898;52.102;5.776;2023-02-01T01:01:06;8.10;99.90
36990;DHT22;22898;52.102;5.776;2023-02-01T01:03:34;7.90;99.90
36990;DHT22;22898;52.102;5.776;2023-02-01T01:06:01;7.90;99.90
36990;DHT22;22898;52.102;5.776;2023-02-01T01:08:27;8.30;99.90
36990;DHT22;22898;52.102;5.776;2023-02-01T01:10:53;8.00;99.90
36990;DHT22;22898;52.102;5.776;2023-02-01T01:13:18;7.80;99.90
36990;DHT22;22898;52.102;5.776;2023-02-01T01:15:44;7.80;99.90
36990;DHT22;22898;52.102;5.776;2023-02-01T01:18:10;7.80;99.90
36990;DHT22;22898;52.102;5.776;2023-02-01T01:20:37;8.10;99.90
36990;DHT22;22898;52.102;5.776;2023-02-01T01:23:04;8.10;99.90
36990;DHT22;22898;52.102;5.776;2023-02-01T01:25:30;8.00;99.90
36990;DHT22;22898;52.102;5.776;2023-02-01T01:27:55;7.90;99.90
36990;DHT22;22898;52.102;5.776;2023-02-01T01:30:21;8.10;99.90
36990;DHT22;22898;52.102;5.776;2023-02-01T01:32:47;8.50;99.90
36990;DHT22;22898;52.102;5.776;2023-02-01T01:35:12;8.60;99.90
36990;DHT22;22898;52.102;5.776;2023-02-01T01:37:38;8.50;99.90
36990;DHT22;22898;52.102;5.776;2023-02-01T01:40:05;8.40;99.90
36990;DHT22;22898;52.102;5.776;2023-02-01T01:42:36;8.30;99.90
36990;DHT22;22898;52.102;5.776;2023-02-01T01:45:22;8.40;99.90
36990;DHT22;22898;52.102;5.776;2023-02-01T01:47:53;8.10;99.90
36990;DHT22;22898;52.102;5.776;2023-02-01T01:50:38;7.90;99.90
36990;DHT22;22898;52.102;5.776;2023-02-01T01:53:06;7.70;99.90
36990;DHT22;22898;52.102;5.776;2023-02-01T01:55:37;7.60;99.90
36990;DHT22;22898;52.102;5.776;2023-02-01T01:58:06;7.80;99.90
36990;DHT22;22898;52.102;5.776;2023-02-01T02:00:33;7.90;99.90
36990;DHT22;22898;52.102;5.776;2023-02-01T02:03:05;7.70;99.90
36990;DHT22;22898;52.102;5.776;2023-02-01T02:05:34;7.90;99.90
36990;DHT22;22898;52.102;5.776;2023-02-01T02:08:00;8.20;99.90
36990;DHT22;22898;52.102;5.776;2023-02-01T02:10:26;8.20;99.90
36990;DHT22;22898;52.102;5.776;2023-02-01T02:13:13;8.20;99.90
36990;DHT22;22898;52.102;5.776;2023-02-01T02:15:46;8.00;99.90
36990;DHT22;22898;52.102;5.776;2023-02-01T02:18:27;8.30;99.90
36990;DHT22;22898;52.102;5.776;2023-02-01T02:21:03;8.50;99.90
36990;DHT22;22898;52.102;5.776;2023-02-01T02:24:02;8.30;99.90
36990;DHT22;22898;52.102;5.776;2023-02-01T02:26:46;8.20;99.90
36990;DHT22;22898;52.102;5.776;2023-02-01T02:32:52;8.20;99.90
36990;DHT22;22898;52.102;5.776;2023-02-01T02:35:38;8.20;99.90
36990;DHT22;22898;52.102;5.776;2023-02-01T02:38:21;8.00;99.90
36990;DHT22;22898;52.102;5.776;2023-02-01T02:43:37;8.20;99.90
36990;DHT22;22898;52.102;5.776;2023-02-01T02:46:36;8.50;99.90
36990;DHT22;22898;52.102;5.776;2023-02-01T02:53:19;8.60;99.90
36990;DHT22;22898;52.102;5.776;2023-02-01T02:56:06;8.50;99.90
36990;DHT22;22898;52.102;5.776;2023-02-01T02:58:52;8.80;99.90
36990;DHT22;22898;52.102;5.776;2023-02-01T03:01:38;8.80;99.90
36990;DHT22;22898;52.102;5.776;2023-02-01T03:04:24;8.80;99.90
36990;DHT22;22898;52.102;5.776;2023-02-01T03:06:52;8.70;99.90
36990;DHT22;22898;52.102;5.776;2023-02-01T03:09:30;8.80;99.90
36990;DHT22;22898;52.102;5.776;2023-02-01T03:12:01;8.80;99.90
36990;DHT22;22898;52.102;5.776;2023-02-01T03:14:50;8.80;99.90
36990;DHT22;22898;52.102;5.776;2023-02-01T03:17:23;8.70;99.90
36990;DHT22;22898;52.102;5.776;2023-02-01T03:19:52;8.60;99.90
36990;DHT22;22898;52.102;5.776;2023-02-01T03:22:23;8.90;99.90
36990;DHT22;22898;52.102;5.776;2023-02-01T03:24:56;9.20;99.90
36990;DHT22;22898;52.102;5.776;2023-02-01T03:27:37;9.20;99.90
36990;DHT22;22898;52.102;5.776;2023-02-01T03:30:10;9.00;99.90
36990;DHT22;22898;52.102;5.776;2023-02-01T03:32:37;9.10;99.90
36990;DHT22;22898;52.102;5.776;2023-02-01T03:36:01;9.30;99.90
36990;DHT22;22898;52.102;5.776;2023-02-01T03:41:42;9.50;99.90
36990;DHT22;22898;52.102;5.776;2023-02-01T03:44:25;9.30;99.90
36990;DHT22;22898;52.102;5.776;2023-02-01T03:52:06;9.50;99.90
36990;DHT22;22898;52.102;5.776;2023-02-01T03:54:34;9.40;99.90
36990;DHT22;22898;52.102;5.776;2023-02-01T03:57:04;9.40;99.90
36990;DHT22;22898;52.102;5.776;2023-02-01T03:59:31;8.90;99.90
36990;DHT22;22898;52.102;5.776;2023-02-01T04:01:56;8.80;99.90
36990;DHT22;22898;52.102;5.776;2023-02-01T04:04:22;8.80;99.90
36990;DHT22;22898;52.102;5.776;2023-02-01T04:06:49;8.50;99.90
36990;DHT22;22898;52.102;5.776;2023-02-01T04:09:16;8.40;99.90
36990;DHT22;22898;52.102;5.776;2023-02-01T04:11:41;8.50;99.90
36990;DHT22;22898;52.102;5.776;2023-02-01T04:14:07;8.40;99.90
36990;DHT22;22898;52.102;5.776;2023-02-01T04:16:33;8.40;99.90
36990;DHT22;22898;52.102;5.776;2023-02-01T04:18:59;8.80;99.90
36990;DHT22;22898;52.102;5.776;2023-02-01T04:21:26;8.90;99.90
36990;DHT22;22898;52.102;5.776;2023-02-01T04:23:52;8.60;99.90
36990;DHT22;22898;52.102;5.776;2023-02-01T04:26:18;8.20;99.90
36990;DHT22;22898;52.102;5.776;2023-02-01T04:28:44;8.40;99.90
36990;DHT22;22898;52.102;5.776;2023-02-01T04:31:13;8.40;99.90
36990;DHT22;22898;52.102;5.776;2023-02-01T04:33:38;8.90;99.90
36990;DHT22;22898;52.102;5.776;2023-02-01T04:36:04;9.10;99.90
36990;DHT22;22898;52.102;5.776;2023-02-01T04:38:30;9.20;99.90
36990;DHT22;22898;52.102;5.776;2023-02-01T04:40:58;9.00;99.90
36990;DHT22;22898;52.102;5.776;2023-02-01T04:43:23;9.00;99.90
36990;DHT22;22898;52.102;5.776;2023-02-01T04:45:49;9.20;99.90
36990;DHT22;22898;52.102;5.776;2023-02-01T04:48:19;8.90;99.90
36990;DHT22;22898;52.102;5.776;2023-02-01T04:50:48;8.90;99.90
36990;DHT22;22898;52.102;5.776;2023-02-01T04:53:17;8.90;99.90
36990;DHT22;22898;52.102;5.776;2023-02-01T04:55:43;9.10;99.90
36990;DHT22;22898;52.102;5.776;2023-02-01T04:58:09;9.30;99.90
36990;DHT22;22898;52.102;5.776;2023-02-01T05:00:35;9.10;99.90
36990;DHT22;22898;52.102;5.776;2023-02-01T05:03:00;9.00;99.90
36990;DHT22;22898;52.102;5.776;2023-02-01T05:05:27;9.30;99.90
36990;DHT22;22898;52.102;5.776;2023-02-01T05:07:53;9.10;99.90
36990;DHT22;22898;52.102;5.776;2023-02-01T05:10:18;9.10;99.90
36990;DHT22;22898;52.102;5.776;2023-02-01T05:12:44;9.30;99.90
36990;DHT22;22898;52.102;5.776;2023-02-01T05:15:29;8.70;99.90
36990;DHT22;22898;52.102;5.776;2023-02-01T05:17:55;8.70;99.90
36990;DHT22;22898;52.102;5.776;2023-02-01T05:20:20;9.40;99.90
36990;DHT22;22898;52.102;5.776;2023-02-01T05:22:46;9.60;99.90
36990;DHT22;22898;52.102;5.776;2023-02-01T05:25:11;9.40;99.90
36990;DHT22;22898;52.102;5.776;2023-02-01T05:27:37;9.30;99.90
36990;DHT22;22898;52.102;5.776;2023-02-01T05:30:07;9.30;99.90
36990;DHT22;22898;52.102;5.776;2023-02-01T05:32:33;9.40;99.90
36990;DHT22;22898;52.102;5.776;2023-02-01T05:34:59;9.10;99.90
36990;DHT22;22898;52.102;5.776;2023-02-01T05:37:24;9.40;99.90
36990;DHT22;22898;52.102;5.776;2023-02-01T05:39:50;9.30;99.90
36990;DHT22;22898;52.102;5.776;2023-02-01T05:42:15;9.10;99.90
36990;DHT22;22898;52.102;5.776;2023-02-01T05:44:41;8.70;99.90
36990;DHT22;22898;52.102;5.776;2023-02-01T05:47:07;8.80;99.90
36990;DHT22;22898;52.102;5.776;2023-02-01T05:49:32;9.10;99.90
36990;DHT22;22898;52.102;5.776;2023-02-01T05:51:58;9.10;99.90
36990;DHT22;22898;52.102;5.776;2023-02-01T05:54:24;9.50;99.90
36990;DHT22;22898;52.102;5.776;2023-02-01T05:56:49;9.80;99.90
36990;DHT22;22898;52.102;5.776;2023-02-01T05:59:17;9.60;99.90
36990;DHT22;22898;52.102;5.776;2023-02-01T06:01:43;8.90;99.90
36990;DHT22;22898;52.102;5.776;2023-02-01T06:04:08;8.70;99.90
36990;DHT22;22898;52.102;5.776;2023-02-01T06:06:34;8.80;99.90
36990;DHT22;22898;52.102;5.776;2023-02-01T06:09:00;9.10;99.90
36990;DHT22;22898;52.102;5.776;2023-02-01T06:11:26;8.90;99.90
36990;DHT22;22898;52.102;5.776;2023-02-01T06:13:51;8.70;99.90
36990;DHT22;22898;52.102;5.776;2023-02-01T06:16:17;9.00;99.90
36990;DHT22;22898;52.102;5.776;2023-02-01T06:18:43;8.80;99.90
36990;DHT22;22898;52.102;5.776;2023-02-01T06:21:08;8.50;99.90
36990;DHT22;22898;52.102;5.776;2023-02-01T06:23:34;8.90;99.90
36990;DHT22;22898;52.102;5.776;2023-02-01T06:26:05;8.90;99.90
36990;DHT22;22898;52.102;5.776;2023-02-01T06:28:33;9.00;99.90
36990;DHT22;22898;52.102;5.776;2023-02-01T06:31:04;9.00;99.90
36990;DHT22;22898;52.102;5.776;2023-02-01T06:33:32;9.10;99.90
36990;DHT22;22898;52.102;5.776;2023-02-01T06:35:59;9.10;99.90
36990;DHT22;22898;52.102;5.776;2023-02-01T06:38:25;8.80;99.90
36990;DHT22;22898;52.102;5.776;2023-02-01T06:40:56;8.90;99.90
36990;DHT22;22898;52.102;5.776;2023-02-01T06:43:23;9.40;99.90
36990;DHT22;22898;52.102;5.776;2023-02-01T06:45:50;9.20;99.90
36990;DHT22;22898;52.102;5.776;2023-02-01T06:48:16;9.10;99.90
36990;DHT22;22898;52.102;5.776;2023-02-01T06:50:41;9.50;99.90
36990;DHT22;22898;52.102;5.776;2023-02-01T06:53:07;9.30;99.90
36990;DHT22;22898;52.102;5.776;2023-02-01T06:55:32;9.20;99.90
36990;DHT22;22898;52.102;5.776;2023-02-01T06:57:58;8.90;99.90
36990;DHT22;22898;52.102;5.776;2023-02-01T07:00:24;9.00;99.90
36990;DHT22;22898;52.102;5.776;2023-02-01T07:02:50;9.10;99.90
36990;DHT22;22898;52.102;5.776;2023-02-01T07:05:16;9.00;99.90
36990;DHT22;22898;52.102;5.776;2023-02-01T07:07:41;8.60;99.90
36990;DHT22;22898;52.102;5.776;2023-02-01T07:10:07;8.60;99.90
36990;DHT22;22898;52.102;5.776;2023-02-01T07:12:33;8.90;99.90
36990;DHT22;22898;52.102;5.776;2023-02-01T07:14:58;8.80;99.90
36990;DHT22;22898;52.102;5.776;2023-02-01T07:17:24;8.80;99.90
36990;DHT22;22898;52.102;5.776;2023-02-01T07:19:50;9.00;99.90
36990;DHT22;22898;52.102;5.776;2023-02-01T07:22:18;9.10;99.90
36990;DHT22;22898;52.102;5.776;2023-02-01T07:24:44;9.10;99.90
36990;DHT22;22898;52.102;5.776;2023-02-01T07:27:09;9.00;99.90
36990;DHT22;22898;52.102;5.776;2023-02-01T07:29:35;8.80;99.90
36990;DHT22;22898;52.102;5.776;2023-02-01T07:32:00;8.60;99.90
36990;DHT22;22898;52.102;5.776;2023-02-01T07:34:28;8.70;99.90
36990;DHT22;22898;52.102;5.776;2023-02-01T07:36:54;8.70;99.90
36990;DHT22;22898;52.102;5.776;2023-02-01T07:39:19;8.60;99.90
36990;DHT22;22898;52.102;5.776;2023-02-01T07:41:45;8.70;99.90
36990;DHT22;22898;52.102;5.776;2023-02-01T07:44:11;8.90;99.90
36990;DHT22;22898;52.102;5.776;2023-02-01T07:46:37;8.90;99.90
36990;DHT22;22898;52.102;5.776;2023-02-01T07:49:04;8.80;99.90
36990;DHT22;22898;52.102;5.776;2023-02-01T07:51:30;8.50;99.90
36990;DHT22;22898;52.102;5.776;2023-02-01T07:53:56;8.60;99.90
36990;DHT22;22898;52.102;5.776;2023-02-01T07:56:21;8.70;99.90
36990;DHT22;22898;52.102;5.776;2023-02-01T07:58:52;8.90;99.90
36990;DHT22;22898;52.102;5.776;2023-02-01T08:01:20;9.10;99.90
36990;DHT22;22898;52.102;5.776;2023-02-01T08:03:51;8.90;99.90
36990;DHT22;22898;52.102;5.776;2023-02-01T08:06:17;8.90;99.90
36990;DHT22;22898;52.102;5.776;2023-02-01T08:08:43;9.10;99.90
36990;DHT22;22898;52.102;5.776;2023-02-01T08:11:10;9.20;99.90
36990;DHT22;22898;52.102;5.776;2023-02-01T08:13:36;9.40;99.90
36990;DHT22;22898;52.102;5.776;2023-02-01T08:16:05;9.40;99.90
36990;DHT22;22898;52.102;5.776;2023-02-01T08:18:31;9.20;99.90
36990;DHT22;22898;52.102;5.776;2023-02-01T08:21:02;9.30;99.90
36990;DHT22;22898;52.102;5.776;2023-02-01T08:23:28;9.50;99.90
36990;DHT22;22898;52.102;5.776;2023-02-01T08:25:54;9.40;99.90
36990;DHT22;22898;52.102;5.776;2023-02-01T08:28:20;9.00;99.90
36990;DHT22;22898;52.102;5.776;2023-02-01T08:30:45;9.00;99.90
36990;DHT22;22898;52.102;5.776;2023-02-01T08:33:11;9.10;99.90
36990;DHT22;22898;52.102;5.776;2023-02-01T08:35:37;9.30;99.90
36990;DHT22;22898;52.102;5.776;2023-02-01T08:38:03;9.30;99.90
36990;DHT22;22898;52.102;5.776;2023-02-01T08:40:30;9.40;99.90
36990;DHT22;22898;52.102;5.776;2023-02-01T08:42:56;9.70;99.90
36990;DHT22;22898;52.102;5.776;2023-02-01T08:45:25;9.20;99.90
36990;DHT22;22898;52.102;5.776;2023-02-01T08:47:52;9.20;99.90
36990;DHT22;22898;52.102;5.776;2023-02-01T08:50:19;9.20;99.90
36990;DHT22;22898;52.102;5.776;2023-02-01T08:52:45;9.20;99.90
36990;DHT22;22898;52.102;5.776;2023-02-01T08:55:12;9.20;99.90
36990;DHT22;22898;52.102;5.776;2023-02-01T08:57:38;9.00;99.90
36990;DHT22;22898;52.102;5.776;2023-02-01T09:00:07;8.90;99.90
36990;DHT22;22898;52.102;5.776;2023-02-01T09:02:33;8.90;99.90
36990;DHT22;22898;52.102;5.776;2023-02-01T09:04:59;9.10;99.90
36990;DHT22;22898;52.102;5.776;2023-02-01T09:07:25;9.50;99.90
36990;DHT22;22898;52.102;5.776;2023-02-01T09:09:50;9.80;99.90
36990;DHT22;22898;52.102;5.776;2023-02-01T09:12:16;9.80;99.90
36990;DHT22;22898;52.102;5.776;2023-02-01T09:14:41;9.70;99.90
36990;DHT22;22898;52.102;5.776;2023-02-01T09:17:07;9.40;99.90
36990;DHT22;22898;52.102;5.776;2023-02-01T09:19:33;9.40;99.90
36990;DHT22;22898;52.102;5.776;2023-02-01T09:21:58;9.50;99.90
36990;DHT22;22898;52.102;5.776;2023-02-01T09:24:24;9.40;99.90
36990;DHT22;22898;52.102;5.776;2023-02-01T09:26:49;9.30;99.90
36990;DHT22;22898;52.102;5.776;2023-02-01T09:29:18;9.00;99.90
36990;DHT22;22898;52.102;5.776;2023-02-01T09:31:43;8.90;99.90
36990;DHT22;22898;52.102;5.776;2023-02-01T09:34:09;9.30;99.90
36990;DHT22;22898;52.102;5.776;2023-02-01T09:36:35;9.10;99.90
36990;DHT22;22898;52.102;5.776;2023-02-01T09:39:01;9.60;99.90
36990;DHT22;22898;52.102;5.776;2023-02-01T09:46:57;9.50;99.90
36990;DHT22;22898;52.102;5.776;2023-02-01T09:49:30;9.70;99.90
36990;DHT22;22898;52.102;5.776;2023-02-01T09:51:59;9.50;99.90
36990;DHT22;22898;52.102;5.776;2023-02-01T09:54:27;9.40;99.90
36990;DHT22;22898;52.102;5.776;2023-02-01T09:57:03;9.50;99.90
36990;DHT22;22898;52.102;5.776;2023-02-01T09:59:43;9.70;99.90
36990;DHT22;22898;52.102;5.776;2023-02-01T10:02:17;9.50;99.90
36990;DHT22;22898;52.102;5.776;2023-02-01T10:04:44;9.60;99.90
36990;DHT22;22898;52.102;5.776;2023-02-01T10:13:16;9.40;99.90
36990;DHT22;22898;52.102;5.776;2023-02-01T10:29:40;8.90;99.90
36990;DHT22;22898;52.102;5.776;2023-02-01T10:32:21;9.10;99.90
36990;DHT22;22898;52.102;5.776;2023-02-01T10:35:17;8.70;99.90
36990;DHT22;22898;52.102;5.776;2023-02-01T10:37:44;8.80;99.90
36990;DHT22;22898;52.102;5.776;2023-02-01T10:40:23;9.00;99.90
36990;DHT22;22898;52.102;5.776;2023-02-01T10:42:51;8.90;99.90
36990;DHT22;22898;52.102;5.776;2023-02-01T10:45:23;9.00;99.90
36990;DHT22;22898;52.102;5.776;2023-02-01T10:47:52;9.00;99.90
36990;DHT22;22898;52.102;5.776;2023-02-01T10:50:55;8.70;99.90
36990;DHT22;22898;52.102;5.776;2023-02-01T10:53:25;8.40;99.90
36990;DHT22;22898;52.102;5.776;2023-02-01T10:55:55;8.40;99.90
36990;DHT22;22898;52.102;5.776;2023-02-01T10:58:31;8.40;99.90
36990;DHT22;22898;52.102;5.776;2023-02-01T11:03:41;8.80;99.90
36990;DHT22;22898;52.102;5.776;2023-02-01T11:06:39;8.50;99.90
36990;DHT22;22898;52.102;5.776;2023-02-01T11:09:11;8.50;99.90
36990;DHT22;22898;52.102;5.776;2023-02-01T11:17:02;8.70;99.90
36990;DHT22;22898;52.102;5.776;2023-02-01T11:19:35;9.00;99.90
36990;DHT22;22898;52.102;5.776;2023-02-01T11:22:01;9.20;99.90
36990;DHT22;22898;52.102;5.776;2023-02-01T11:24:32;9.00;99.90
36990;DHT22;22898;52.102;5.776;2023-02-01T11:27:00;8.90;99.90
36990;DHT22;22898;52.102;5.776;2023-02-01T11:29:31;8.90;99.90
36990;DHT22;22898;52.102;5.776;2023-02-01T11:31:59;8.70;99.90
36990;DHT22;22898;52.102;5.776;2023-02-01T11:34:31;8.90;99.90
36990;DHT22;22898;52.102;5.776;2023-02-01T11:37:01;8.90;99.90
36990;DHT22;22898;52.102;5.776;2023-02-01T11:39:34;9.20;99.90
36990;DHT22;22898;52.102;5.776;2023-02-01T11:42:11;9.40;99.90
36990;DHT22;22898;52.102;5.776;2023-02-01T11:44:40;9.00;99.90
36990;DHT22;22898;52.102;5.776;2023-02-01T11:47:25;9.00;99.90
36990;DHT22;22898;52.102;5.776;2023-02-01T11:49:59;9.20;99.90
36990;DHT22;22898;52.102;5.776;2023-02-01T11:55:18;9.00;99.90
36990;DHT22;22898;52.102;5.776;2023-02-01T11:57:57;8.90;99.90
36990;DHT22;22898;52.102;5.776;2023-02-01T12:09:01;9.30;99.90
36990;DHT22;22898;52.102;5.776;2023-02-01T12:31:27;9.70;99.90
36990;DHT22;22898;52.102;5.776;2023-02-01T12:44:54;9.90;99.90
36990;DHT22;22898;52.102;5.776;2023-02-01T12:47:33;9.60;99.90
36990;DHT22;22898;52.102;5.776;2023-02-01T12:50:05;9.70;99.90
36990;DHT22;22898;52.102;5.776;2023-02-01T12:52:42;10.10;99.90
36990;DHT22;22898;52.102;5.776;2023-02-01T12:55:48;10.00;99.90
36990;DHT22;22898;52.102;5.776;2023-02-01T13:01:41;9.90;99.90
36990;DHT22;22898;52.102;5.776;2023-02-01T13:04:34;9.70;99.90
36990;DHT22;22898;52.102;5.776;2023-02-01T13:07:14;9.60;99.90
36990;DHT22;22898;52.102;5.776;2023-02-01T13:12:17;10.10;99.90
36990;DHT22;22898;52.102;5.776;2023-02-01T13:14:53;9.80;99.90
36990;DHT22;22898;52.102;5.776;2023-02-01T13:17:23;10.00;99.90
36990;DHT22;22898;52.102;5.776;2023-02-01T13:20:13;10.10;99.90
36990;DHT22;22898;52.102;5.776;2023-02-01T13:22:45;10.00;99.90
36990;DHT22;22898;52.102;5.776;2023-02-01T13:25:29;10.00;99.90
36990;DHT22;22898;52.102;5.776;2023-02-01T13:28:14;10.00;99.90
36990;DHT22;22898;52.102;5.776;2023-02-01T13:41:56;9.60;99.90
36990;DHT22;22898;52.102;5.776;2023-02-01T13:46:57;10.10;99.90
36990;DHT22;22898;52.102;5.776;2023-02-01T13:49:31;9.80;99.90
36990;DHT22;22898;52.102;5.776;2023-02-01T13:51:59;9.70;99.90
36990;DHT22;22898;52.102;5.776;2023-02-01T13:56:54;10.40;99.90
36990;DHT22;22898;52.102;5.776;2023-02-01T13:59:36;10.20;99.90
36990;DHT22;22898;52.102;5.776;2023-02-01T14:05:12;9.50;99.90
36990;DHT22;22898;52.102;5.776;2023-02-01T14:16:19;10.40;99.90
36990;DHT22;22898;52.102;5.776;2023-02-01T14:21:31;10.20;99.90
36990;DHT22;22898;52.102;5.776;2023-02-01T14:31:58;10.70;99.90
36990;DHT22;22898;52.102;5.776;2023-02-01T14:42:46;10.20;99.90
36990;DHT22;22898;52.102;5.776;2023-02-01T14:47:45;10.10;99.90
36990;DHT22;22898;52.102;5.776;2023-02-01T15:01:28;10.10;99.90
36990;DHT22;22898;52.102;5.776;2023-02-01T15:04:14;10.00;99.90
36990;DHT22;22898;52.102;5.776;2023-02-01T15:07:03;10.10;99.90
36990;DHT22;22898;52.102;5.776;2023-02-01T15:09:36;10.00;99.90
36990;DHT22;22898;52.102;5.776;2023-02-01T15:15:08;9.80;99.90
36990;DHT22;22898;52.102;5.776;2023-02-01T15:17:29;10.10;99.90
36990;DHT22;22898;52.102;5.776;2023-02-01T15:20:33;9.10;99.90
36990;DHT22;22898;52.102;5.776;2023-02-01T15:23:05;9.00;99.90
36990;DHT22;22898;52.102;5.776;2023-02-01T15:25:34;9.00;99.90
36990;DHT22;22898;52.102;5.776;2023-02-01T15:28:03;8.40;99.90
36990;DHT22;22898;52.102;5.776;2023-02-01T15:30:32;8.00;99.90
36990;DHT22;22898;52.102;5.776;2023-02-01T15:33:17;7.80;99.90
36990;DHT22;22898;52.102;5.776;2023-02-01T15:35:45;7.60;99.90
36990;DHT22;22898;52.102;5.776;2023-02-01T15:41:19;7.70;99.90
36990;DHT22;22898;52.102;5.776;2023-02-01T15:46:41;8.20;99.90
36990;DHT22;22898;52.102;5.776;2023-02-01T15:51:52;8.20;99.90
36990;DHT22;22898;52.102;5.776;2023-02-01T15:54:41;8.40;99.90
36990;DHT22;22898;52.102;5.776;2023-02-01T15:57:09;9.10;99.90
36990;DHT22;22898;52.102;5.776;2023-02-01T15:59:42;9.70;99.90
36990;DHT22;22898;52.102;5.776;2023-02-01T16:02:37;9.70;99.90
36990;DHT22;22898;52.102;5.776;2023-02-01T16:05:05;9.60;99.90
36990;DHT22;22898;52.102;5.776;2023-02-01T16:07:33;10.00;99.90
36990;DHT22;22898;52.102;5.776;2023-02-01T16:10:23;10.30;99.90
36990;DHT22;22898;52.102;5.776;2023-02-01T16:12:50;10.10;99.90
36990;DHT22;22898;52.102;5.776;2023-02-01T16:15:17;10.10;99.90
36990;DHT22;22898;52.102;5.776;2023-02-01T16:17:42;10.20;99.90
36990;DHT22;22898;52.102;5.776;2023-02-01T16:20:09;10.10;99.90
36990;DHT22;22898;52.102;5.776;2023-02-01T16:22:35;10.00;99.90
36990;DHT22;22898;52.102;5.776;2023-02-01T16:25:00;10.40;99.90
36990;DHT22;22898;52.102;5.776;2023-02-01T16:27:27;10.60;99.90
36990;DHT22;22898;52.102;5.776;2023-02-01T16:29:53;10.40;99.90
36990;DHT22;22898;52.102;5.776;2023-02-01T16:32:21;9.80;99.90
36990;DHT22;22898;52.102;5.776;2023-02-01T16:34:47;9.70;99.90
36990;DHT22;22898;52.102;5.776;2023-02-01T16:37:22;9.50;99.90
36990;DHT22;22898;52.102;5.776;2023-02-01T16:39:48;9.50;99.90
36990;DHT22;22898;52.102;5.776;2023-02-01T16:42:17;9.70;99.90
36990;DHT22;22898;52.102;5.776;2023-02-01T16:44:43;9.70;99.90
36990;DHT22;22898;52.102;5.776;2023-02-01T16:47:19;9.80;99.90
36990;DHT22;22898;52.102;5.776;2023-02-01T16:49:45;9.80;99.90
36990;DHT22;22898;52.102;5.776;2023-02-01T16:52:29;9.90;99.90
36990;DHT22;22898;52.102;5.776;2023-02-01T16:54:55;9.90;99.90
36990;DHT22;22898;52.102;5.776;2023-02-01T16:57:21;10.00;99.90
36990;DHT22;22898;52.102;5.776;2023-02-01T16:59:51;10.20;99.90
36990;DHT22;22898;52.102;5.776;2023-02-01T17:02:18;10.40;99.90
36990;DHT22;22898;52.102;5.776;2023-02-01T17:04:45;9.70;99.90
36990;DHT22;22898;52.102;5.776;2023-02-01T17:07:18;8.30;99.90
36990;DHT22;22898;52.102;5.776;2023-02-01T17:09:45;7.70;99.90
36990;DHT22;22898;52.102;5.776;2023-02-01T17:12:27;7.50;99.90
36990;DHT22;22898;52.102;5.776;2023-02-01T17:14:53;8.10;99.90
36990;DHT22;22898;52.102;5.776;2023-02-01T17:17:20;8.30;99.90
36990;DHT22;22898;52.102;5.776;2023-02-01T17:19:52;8.30;99.90
36990;DHT22;22898;52.102;5.776;2023-02-01T17:22:22;8.70;99.90
36990;DHT22;22898;52.102;5.776;2023-02-01T17:24:48;8.80;99.90
36990;DHT22;22898;52.102;5.776;2023-02-01T17:27:16;9.20;99.90
36990;DHT22;22898;52.102;5.776;2023-02-01T17:29:42;9.30;99.90
36990;DHT22;22898;52.102;5.776;2023-02-01T17:32:23;9.60;99.90
36990;DHT22;22898;52.102;5.776;2023-02-01T17:34:50;9.70;99.90
36990;DHT22;22898;52.102;5.776;2023-02-01T17:37:33;9.70;99.90
36990;DHT22;22898;52.102;5.776;2023-02-01T17:40:01;10.30;99.90
36990;DHT22;22898;52.102;5.776;2023-02-01T17:42:28;10.60;99.90
36990;DHT22;22898;52.102;5.776;2023-02-01T17:44:57;10.80;99.90
36990;DHT22;22898;52.102;5.776;2023-02-01T17:47:22;10.40;99.90
36990;DHT22;22898;52.102;5.776;2023-02-01T17:49:49;10.10;99.90
36990;DHT22;22898;52.102;5.776;2023-02-01T17:52:21;9.70;99.90
36990;DHT22;22898;52.102;5.776;2023-02-01T17:54:47;9.60;99.90
36990;DHT22;22898;52.102;5.776;2023-02-01T17:57:17;9.50;99.90
36990;DHT22;22898;52.102;5.776;2023-02-01T17:59:43;9.60;99.90
36990;DHT22;22898;52.102;5.776;2023-02-01T18:02:20;10.00;99.90
36990;DHT22;22898;52.102;5.776;2023-02-01T18:04:46;10.30;99.90
36990;DHT22;22898;52.102;5.776;2023-02-01T18:07:12;10.10;99.90
36990;DHT22;22898;52.102;5.776;2023-02-01T18:09:38;9.90;99.90
36990;DHT22;22898;52.102;5.776;2023-02-01T18:12:04;9.60;99.90
36990;DHT22;22898;52.102;5.776;2023-02-01T18:14:30;9.70;99.90
36990;DHT22;22898;52.102;5.776;2023-02-01T18:16:55;9.90;99.90
36990;DHT22;22898;52.102;5.776;2023-02-01T18:19:21;9.90;99.90
36990;DHT22;22898;52.102;5.776;2023-02-01T18:21:46;9.90;99.90
36990;DHT22;22898;52.102;5.776;2023-02-01T18:24:14;9.00;99.90
36990;DHT22;22898;52.102;5.776;2023-02-01T18:26:41;8.50;99.90
36990;DHT22;22898;52.102;5.776;2023-02-01T18:29:07;7.70;99.90
36990;DHT22;22898;52.102;5.776;2023-02-01T18:31:34;7.40;99.90
36990;DHT22;22898;52.102;5.776;2023-02-01T18:34:01;7.60;99.90
36990;DHT22;22898;52.102;5.776;2023-02-01T18:36:28;7.90;99.90
36990;DHT22;22898;52.102;5.776;2023-02-01T18:38:54;8.10;99.90
36990;DHT22;22898;52.102;5.776;2023-02-01T18:41:22;8.10;99.90
36990;DHT22;22898;52.102;5.776;2023-02-01T18:43:49;8.30;99.90
36990;DHT22;22898;52.102;5.776;2023-02-01T18:46:16;7.90;99.90
36990;DHT22;22898;52.102;5.776;2023-02-01T18:48:42;7.80;99.90
36990;DHT22;22898;52.102;5.776;2023-02-01T18:51:10;8.00;99.90
36990;DHT22;22898;52.102;5.776;2023-02-01T18:53:37;8.40;99.90
36990;DHT22;22898;52.102;5.776;2023-02-01T18:56:02;8.20;99.90